createdAt,value
2019-05-10T00:00:41.631Z,5.60
2019-05-10T00:03:27.079Z,6.37
2019-05-10T00:06:12.384Z,6.78
2019-05-10T00:08:44.715Z,5.25
2019-05-10T00:11:37.686Z,3.72
2019-05-10T00:14:34.175Z,3.98
2019-05-10T00:17:08.627Z,7.28
2019-05-10T00:19:36.050Z,6.10
2019-05-10T00:22:03.649Z,5.20
2019-05-10T00:24:30.745Z,4.95
2019-05-10T00:26:57.723Z,5.03
2019-05-10T00:29:24.906Z,6.58
2019-05-10T00:31:52.002Z,4.28
2019-05-10T00:34:20.217Z,6.70
2019-05-10T00:36:47.373Z,5.95
2019-05-10T00:39:14.564Z,5.78
2019-05-10T00:41:41.652Z,6.42
2019-05-10T00:44:09.248Z,4.50
2019-05-10T00:46:36.626Z,6.37
2019-05-10T00:49:03.998Z,6.10
2019-05-10T00:51:32.184Z,6.83
2019-05-10T00:53:59.598Z,4.08
2019-05-10T00:56:26.923Z,5.10
2019-05-10T00:58:54.348Z,5.03
2019-05-10T01:01:21.446Z,5.33
2019-05-10T01:03:48.881Z,4.47
2019-05-10T01:06:16.082Z,5.03
2019-05-10T01:08:43.272Z,5.67
2019-05-10T01:11:10.904Z,5.87
2019-05-10T01:13:38.668Z,6.60
2019-05-10T01:16:05.679Z,5.15
2019-05-10T01:18:33.009Z,5.80
2019-05-10T01:21:00.054Z,7.45
2019-05-10T01:23:27.538Z,7.42
2019-05-10T01:25:54.967Z,8.03
2019-05-10T01:28:22.227Z,6.22
2019-05-10T01:30:49.384Z,5.50
2019-05-10T01:33:16.754Z,6.10
2019-05-10T01:35:44.224Z,5.60
2019-05-10T01:38:11.527Z,7.70
2019-05-10T01:40:38.502Z,7.53
2019-05-10T01:43:05.494Z,8.53
2019-05-10T01:45:32.526Z,6.92
2019-05-10T01:47:59.794Z,7.35
2019-05-10T01:50:26.784Z,8.75
2019-05-10T01:52:53.936Z,9.30
2019-05-10T01:55:21.309Z,9.75
2019-05-10T01:57:48.394Z,6.65
2019-05-10T02:00:16.043Z,9.25
2019-05-10T02:02:43.079Z,10.32
2019-05-10T02:05:10.501Z,10.25
2019-05-10T02:07:37.866Z,9.20
2019-05-10T02:10:05.327Z,8.58
2019-05-10T02:12:32.362Z,9.45
2019-05-10T02:14:59.390Z,11.93
2019-05-10T02:17:26.755Z,10.82
2019-05-10T02:19:53.786Z,11.63
2019-05-10T02:22:21.013Z,11.33
2019-05-10T02:24:48.111Z,12.47
2019-05-10T02:27:15.059Z,11.43
2019-05-10T02:29:42.591Z,10.85
2019-05-10T02:32:09.629Z,10.82
2019-05-10T02:34:37.088Z,11.65
2019-05-10T02:37:04.208Z,10.50
2019-05-10T02:39:31.472Z,10.93
2019-05-10T02:41:58.858Z,15.35
2019-05-10T02:44:25.943Z,10.85
2019-05-10T02:46:52.993Z,13.45
2019-05-10T02:49:20.101Z,14.03
2019-05-10T02:51:47.634Z,14.98
2019-05-10T02:54:15.220Z,14.25
2019-05-10T02:56:42.932Z,15.15
2019-05-10T02:59:11.370Z,13.08
2019-05-10T03:01:44.368Z,12.03
2019-05-10T03:04:12.715Z,13.83
2019-05-10T03:06:42.287Z,12.82
2019-05-10T03:09:09.601Z,13.68
2019-05-10T03:11:45.789Z,13.05
2019-05-10T03:14:19.261Z,12.85
2019-05-10T03:16:49.412Z,12.65
2019-05-10T03:19:18.211Z,14.33
2019-05-10T03:21:50.516Z,14.47
2019-05-10T03:24:17.886Z,14.13
2019-05-10T03:26:50.694Z,12.35
2019-05-10T03:29:16.623Z,13.50
2019-05-10T03:31:44.238Z,14.13
2019-05-10T03:34:11.527Z,12.15
2019-05-10T03:36:38.854Z,13.98
2019-05-10T03:39:06.040Z,13.15
2019-05-10T03:41:33.561Z,12.95
2019-05-10T03:44:00.523Z,12.33
2019-05-10T03:46:28.791Z,12.80
2019-05-10T03:48:55.905Z,12.10
2019-05-10T03:51:22.982Z,13.43
2019-05-10T03:53:50.130Z,13.30
2019-05-10T03:56:17.309Z,13.03
2019-05-10T03:58:44.339Z,12.50
2019-05-10T04:01:11.926Z,14.80
2019-05-10T04:03:39.356Z,12.90
2019-05-10T04:06:06.499Z,15.93
2019-05-10T04:08:34.376Z,14.70
2019-05-10T04:11:01.808Z,15.03
2019-05-10T04:13:28.839Z,17.05
2019-05-10T04:15:55.938Z,14.55
2019-05-10T04:18:23.310Z,13.70
2019-05-10T04:20:50.745Z,13.80
2019-05-10T04:23:17.989Z,17.45
2019-05-10T04:25:45.108Z,25.15
2019-05-10T04:28:12.281Z,15.78
2019-05-10T04:30:39.618Z,15.45
2019-05-10T04:33:06.696Z,21.30
2019-05-10T04:35:34.830Z,14.83
2019-05-10T04:38:02.127Z,17.30
2019-05-10T04:40:29.560Z,18.15
2019-05-10T04:42:56.655Z,17.82
2019-05-10T04:45:23.742Z,22.82
2019-05-10T04:47:50.826Z,21.85
2019-05-10T04:50:17.926Z,19.25
2019-05-10T04:52:45.374Z,22.40
2019-05-10T04:55:12.543Z,22.17
2019-05-10T04:57:49.792Z,23.00
2019-05-10T05:00:08.781Z,20.85
2019-05-10T05:02:35.811Z,19.02
2019-05-10T05:05:03.631Z,23.27
2019-05-10T05:07:30.715Z,27.73
2019-05-10T05:09:58.431Z,23.90
2019-05-10T05:12:25.731Z,22.80
2019-05-10T05:14:53.300Z,25.23
2019-05-10T05:17:20.689Z,19.95
2019-05-10T05:19:47.741Z,23.57
2019-05-10T05:22:14.839Z,24.45
2019-05-10T05:24:41.855Z,27.10
2019-05-10T05:27:08.886Z,20.50
2019-05-10T05:29:35.909Z,26.05
2019-05-10T05:32:03.864Z,28.12
2019-05-10T05:34:32.749Z,30.75
2019-05-10T05:36:59.996Z,25.90
2019-05-10T05:39:26.985Z,19.85
2019-05-10T05:41:56.581Z,23.15
2019-05-10T05:44:26.066Z,19.85
2019-05-10T05:46:52.409Z,18.82
2019-05-10T05:49:19.528Z,28.60
2019-05-10T05:51:46.584Z,18.60
2019-05-10T05:54:15.086Z,30.45
2019-05-10T05:56:44.438Z,22.40
2019-05-10T05:59:17.451Z,23.98
2019-05-10T06:01:41.751Z,23.87
2019-05-10T06:04:12.525Z,26.17
2019-05-10T06:06:38.259Z,19.75
2019-05-10T06:09:05.848Z,21.35
2019-05-10T06:11:35.956Z,20.43
2019-05-10T06:14:09.724Z,21.52
2019-05-10T06:16:32.714Z,23.05
2019-05-10T06:18:59.839Z,18.40
2019-05-10T06:21:27.093Z,19.52
2019-05-10T06:23:54.411Z,22.22
2019-05-10T06:26:28.051Z,19.37
2019-05-10T06:29:03.391Z,19.67
2019-05-10T06:31:19.777Z,23.02
2019-05-10T06:33:47.052Z,23.27
2019-05-10T06:36:14.172Z,20.82
2019-05-10T06:38:41.233Z,21.25
2019-05-10T06:41:10.177Z,22.93
2019-05-10T06:43:37.331Z,23.75
2019-05-10T06:46:04.686Z,25.30
2019-05-10T06:48:33.617Z,23.52
2019-05-10T06:51:02.820Z,24.72
2019-05-10T06:53:29.664Z,20.80
2019-05-10T06:55:56.882Z,21.42
2019-05-10T06:58:24.463Z,23.22
2019-05-10T07:00:52.872Z,22.52
2019-05-10T07:03:20.514Z,20.30
2019-05-10T07:05:47.527Z,17.80
2019-05-10T07:08:20.141Z,17.52
2019-05-10T07:10:43.908Z,14.00
2019-05-10T07:13:11.468Z,16.05
2019-05-10T07:15:42.195Z,11.30
2019-05-10T07:18:07.750Z,8.40
2019-05-10T07:20:34.824Z,10.35
2019-05-10T07:23:06.247Z,9.20
2019-05-10T07:25:31.118Z,6.95
2019-05-10T07:27:58.361Z,9.70
2019-05-10T07:30:30.972Z,9.78
2019-05-10T07:32:59.958Z,10.75
2019-05-10T07:35:30.942Z,11.73
2019-05-10T07:37:57.782Z,9.73
2019-05-10T07:40:24.833Z,12.63
2019-05-10T07:42:52.237Z,15.03
2019-05-10T07:45:25.562Z,11.60
2019-05-10T07:47:48.725Z,13.08
2019-05-10T07:50:15.838Z,13.78
2019-05-10T07:52:43.806Z,12.68
2019-05-10T07:55:11.856Z,15.20
2019-05-10T07:57:39.378Z,14.45
2019-05-10T08:00:07.063Z,13.90
2019-05-10T08:02:34.303Z,13.08
2019-05-10T08:05:04.963Z,15.83
2019-05-10T08:07:30.626Z,15.08
2019-05-10T08:09:59.445Z,17.10
2019-05-10T08:12:28.848Z,14.78
2019-05-10T08:14:56.416Z,16.73
2019-05-10T08:17:23.379Z,14.60
2019-05-10T08:19:50.440Z,14.78
2019-05-10T08:22:17.556Z,13.55
2019-05-10T08:24:52.652Z,14.63
2019-05-10T08:27:14.774Z,13.55
2019-05-10T08:29:42.932Z,13.48
2019-05-10T08:32:12.809Z,34.13
2019-05-10T08:34:50.690Z,12.43
2019-05-10T08:37:08.593Z,12.10
2019-05-10T08:39:46.537Z,14.80
2019-05-10T08:42:28.588Z,12.23
2019-05-10T08:44:34.262Z,14.03
2019-05-10T08:47:02.286Z,14.73
2019-05-10T08:49:41.764Z,12.75
2019-05-10T08:51:59.550Z,13.30
2019-05-10T08:54:27.026Z,14.87
2019-05-10T08:57:01.097Z,11.68
2019-05-10T08:59:26.454Z,14.80
2019-05-10T09:01:53.777Z,12.73
2019-05-10T09:04:22.247Z,12.60
2019-05-10T09:06:55.499Z,12.60
2019-05-10T09:09:18.823Z,13.83
2019-05-10T09:11:46.512Z,13.98
2019-05-10T09:14:19.717Z,13.08
2019-05-10T09:16:45.718Z,13.28
2019-05-10T09:19:12.523Z,12.07
2019-05-10T09:21:40.972Z,12.65
2019-05-10T09:24:08.551Z,12.43
2019-05-10T09:26:35.877Z,11.55
2019-05-10T09:29:03.079Z,11.22
2019-05-10T09:31:32.498Z,14.28
2019-05-10T09:33:59.233Z,10.82
2019-05-10T09:36:31.058Z,15.32
2019-05-10T09:38:55.148Z,11.78
2019-05-10T09:41:22.707Z,11.00
2019-05-10T09:43:50.627Z,11.57
2019-05-10T09:46:18.807Z,11.10
2019-05-10T09:48:45.793Z,11.55
2019-05-10T09:51:13.792Z,8.73
2019-05-10T09:53:40.982Z,9.05
2019-05-10T09:56:08.008Z,10.08
2019-05-10T09:58:35.061Z,9.70
2019-05-10T10:01:13.452Z,8.90
2019-05-10T10:03:39.834Z,12.90
2019-05-10T10:06:06.017Z,6.40
2019-05-10T10:08:29.290Z,5.15
2019-05-10T10:11:01.242Z,9.80
2019-05-10T10:13:39.049Z,6.90
2019-05-10T10:15:54.243Z,4.72
2019-05-10T10:18:25.215Z,5.60
2019-05-10T10:20:50.194Z,5.30
2019-05-10T10:23:17.466Z,5.42
2019-05-10T10:25:44.557Z,6.87
2019-05-10T10:28:16.858Z,5.42
2019-05-10T10:30:40.685Z,9.55
2019-05-10T10:33:11.735Z,7.20
2019-05-10T10:35:37.787Z,5.17
2019-05-10T10:38:07.747Z,6.60
2019-05-10T10:40:35.497Z,9.25
2019-05-10T10:43:03.435Z,6.45
2019-05-10T10:45:30.440Z,6.72
2019-05-10T10:48:02.561Z,4.00
2019-05-10T10:50:27.538Z,4.30
2019-05-10T10:52:57.345Z,5.72
2019-05-10T10:55:23.950Z,5.78
2019-05-10T10:57:50.939Z,5.53
2019-05-10T11:00:30.518Z,5.28
2019-05-10T11:02:58.159Z,5.03
2019-05-10T11:05:25.166Z,3.45
2019-05-10T11:07:52.198Z,4.30
2019-05-10T11:10:24.593Z,4.30
2019-05-10T11:12:56.405Z,3.95
2019-05-10T11:15:23.221Z,3.30
2019-05-10T11:17:50.606Z,3.58
2019-05-10T11:20:17.789Z,2.90
2019-05-10T11:22:51.671Z,4.15
2019-05-10T11:25:14.374Z,4.87
2019-05-10T11:27:41.784Z,3.52
2019-05-10T11:30:11.899Z,4.33
2019-05-10T11:32:38.699Z,4.00
2019-05-10T11:35:06.199Z,3.70
2019-05-10T11:37:36.358Z,2.65
2019-05-10T11:40:02.226Z,2.85
2019-05-10T11:42:31.025Z,5.70
2019-05-10T11:45:00.635Z,4.95
2019-05-10T11:47:27.492Z,4.40
2019-05-10T11:49:54.868Z,4.22
2019-05-10T11:52:21.922Z,3.22
2019-05-10T11:54:51.440Z,6.53
2019-05-10T11:57:18.391Z,3.98
2019-05-10T11:59:45.402Z,3.70
2019-05-10T12:02:33.888Z,3.77
2019-05-10T12:04:43.407Z,4.08
2019-05-10T12:09:42.509Z,3.33
2019-05-10T12:12:11.980Z,4.08
2019-05-10T12:14:37.195Z,3.50
2019-05-10T12:17:06.322Z,4.17
2019-05-10T12:22:04.734Z,6.30
2019-05-10T12:24:46.657Z,5.72
2019-05-10T12:26:05.084Z,5.45
2019-05-10T12:26:05.396Z,4.12
2019-05-10T12:27:18.862Z,5.85
2019-05-10T12:29:31.650Z,4.03
2019-05-10T12:31:58.662Z,4.85
2019-05-10T12:34:26.026Z,4.95
2019-05-10T12:36:57.495Z,5.20
2019-05-10T12:39:22.526Z,3.72
2019-05-10T12:41:52.252Z,5.65
2019-05-10T12:44:18.631Z,4.20
2019-05-10T12:46:45.691Z,7.50
2019-05-10T12:49:13.378Z,9.90
2019-05-10T12:51:40.885Z,7.17
2019-05-10T12:54:11.278Z,4.40
2019-05-10T12:56:43.834Z,3.95
2019-05-10T12:59:07.327Z,6.00
2019-05-10T13:01:34.591Z,7.62
2019-05-10T13:04:02.234Z,3.12
2019-05-10T13:06:30.620Z,4.67
2019-05-10T13:08:57.622Z,2.90
2019-05-10T13:11:25.667Z,4.20
2019-05-10T13:13:53.577Z,5.33
2019-05-10T13:16:20.566Z,3.05
2019-05-10T13:18:51.706Z,3.42
2019-05-10T13:21:20.663Z,5.05
2019-05-10T13:23:45.577Z,2.15
2019-05-10T13:26:12.561Z,4.70
2019-05-10T13:28:39.586Z,6.10
2019-05-10T13:31:07.259Z,6.08
2019-05-10T13:33:41.621Z,3.45
2019-05-10T13:36:04.013Z,4.80
2019-05-10T13:38:31.377Z,4.47
2019-05-10T13:40:58.661Z,5.60
2019-05-10T13:43:30.108Z,4.70
2019-05-10T13:45:57.483Z,4.85
2019-05-10T13:48:26.417Z,4.50
2019-05-10T13:50:53.567Z,8.85
2019-05-10T13:53:23.053Z,7.08
2019-05-10T13:55:49.955Z,5.30
2019-05-10T13:58:17.085Z,2.87
2019-05-10T14:00:44.329Z,5.12
2019-05-10T14:03:13.511Z,5.22
2019-05-10T14:05:41.015Z,5.92
2019-05-10T14:08:08.238Z,5.08
2019-05-10T14:10:35.772Z,3.45
2019-05-10T14:13:04.126Z,4.60
2019-05-10T14:15:31.978Z,3.08
2019-05-10T14:17:59.043Z,5.20
2019-05-10T14:20:27.637Z,6.12
2019-05-10T14:22:58.517Z,4.83
2019-05-10T14:25:29.629Z,4.72
2019-05-10T14:27:54.819Z,4.97
2019-05-10T14:30:23.007Z,2.90
2019-05-10T14:32:50.228Z,4.95
2019-05-10T14:35:22.571Z,7.03
2019-05-10T14:37:47.975Z,4.50
2019-05-10T14:40:17.012Z,6.87
2019-05-10T14:42:45.046Z,6.15
2019-05-10T14:45:12.477Z,4.05
2019-05-10T14:47:48.312Z,8.70
2019-05-10T14:50:09.686Z,5.00
2019-05-10T14:52:36.867Z,6.83
2019-05-10T14:55:05.143Z,5.22
2019-05-10T14:57:32.205Z,7.37
2019-05-10T14:59:59.222Z,8.93
2019-05-10T15:02:26.202Z,6.70
2019-05-10T15:04:53.648Z,6.20
2019-05-10T15:07:20.951Z,6.92
2019-05-10T15:09:48.022Z,9.25
2019-05-10T15:12:22.415Z,6.00
2019-05-10T15:14:44.335Z,5.50
2019-05-10T15:17:11.518Z,5.67
2019-05-10T15:19:38.612Z,5.08
2019-05-10T15:22:05.896Z,7.62
2019-05-10T15:24:33.038Z,4.50
2019-05-10T15:27:00.158Z,6.85
2019-05-10T15:29:27.892Z,6.28
2019-05-10T15:31:55.125Z,7.30
2019-05-10T15:34:22.491Z,5.37
2019-05-10T15:36:49.531Z,5.75
2019-05-10T15:39:16.886Z,9.35
2019-05-10T15:41:43.927Z,8.00
2019-05-10T15:44:11.249Z,4.87
2019-05-10T15:46:42.280Z,4.22
2019-05-10T15:49:08.377Z,7.53
2019-05-10T15:51:36.704Z,4.62
2019-05-10T15:54:07.215Z,6.58
2019-05-10T15:56:35.513Z,9.70
2019-05-10T15:59:02.551Z,7.47
2019-05-10T16:01:29.560Z,7.47
2019-05-10T16:03:57.771Z,7.00
2019-05-10T16:06:25.075Z,4.45
2019-05-10T16:08:52.451Z,3.83
2019-05-10T16:11:20.787Z,5.33
2019-05-10T16:13:48.169Z,6.75
2019-05-10T16:16:15.829Z,9.80
2019-05-10T16:18:42.922Z,9.73
2019-05-10T16:21:15.297Z,7.25
2019-05-10T16:23:41.505Z,5.55
2019-05-10T16:26:08.186Z,6.35
2019-05-10T16:28:38.394Z,5.83
2019-05-10T16:31:05.600Z,5.97
2019-05-10T16:33:32.683Z,7.35
2019-05-10T16:36:00.554Z,9.18
2019-05-10T16:38:27.947Z,8.98
2019-05-10T16:41:00.616Z,8.05
2019-05-10T16:43:24.863Z,8.73
2019-05-10T16:45:52.404Z,8.08
2019-05-10T16:48:19.468Z,5.72
2019-05-10T16:50:46.534Z,9.40
2019-05-10T16:53:13.764Z,7.97
2019-05-10T16:55:42.934Z,3.52
2019-05-10T16:58:15.206Z,6.25
2019-05-10T17:00:40.613Z,8.35
2019-05-10T17:03:07.865Z,7.70
2019-05-10T17:05:34.889Z,9.25
2019-05-10T17:08:01.911Z,8.03
2019-05-10T17:10:32.819Z,7.92
2019-05-10T17:12:59.482Z,9.55
2019-05-10T17:15:27.409Z,8.15
2019-05-10T17:17:54.399Z,7.78
2019-05-10T17:20:21.560Z,8.48
2019-05-10T17:22:49.205Z,6.92
2019-05-10T17:25:16.572Z,4.30
2019-05-10T17:27:44.363Z,5.37
2019-05-10T17:30:11.647Z,11.30
2019-05-10T17:32:38.718Z,9.15
2019-05-10T17:35:06.917Z,8.55
2019-05-10T17:37:35.833Z,5.15
2019-05-10T17:40:04.718Z,8.05
2019-05-10T17:42:35.579Z,8.43
2019-05-10T17:45:04.366Z,11.05
2019-05-10T17:47:32.219Z,9.48
2019-05-10T17:50:01.163Z,6.67
2019-05-10T17:52:28.156Z,5.42
2019-05-10T17:54:56.254Z,6.92
2019-05-10T17:57:23.284Z,8.15
2019-05-10T17:59:53.087Z,5.45
2019-05-10T18:02:20.223Z,9.50
2019-05-10T18:04:51.128Z,10.80
2019-05-10T18:07:18.670Z,6.33
2019-05-10T18:09:46.210Z,6.15
2019-05-10T18:12:15.673Z,6.40
2019-05-10T18:14:44.124Z,8.50
2019-05-10T18:17:12.087Z,6.97
2019-05-10T18:19:39.600Z,7.58
2019-05-10T18:22:07.491Z,8.68
2019-05-10T18:24:38.615Z,9.35
2019-05-10T18:27:04.994Z,5.80
2019-05-10T18:29:32.291Z,9.55
2019-05-10T18:32:00.308Z,6.08
2019-05-10T18:34:33.263Z,5.47
2019-05-10T18:36:56.492Z,8.35
2019-05-10T18:39:23.998Z,9.65
2019-05-10T18:41:51.784Z,7.62
2019-05-10T18:44:19.533Z,8.48
2019-05-10T18:46:47.533Z,6.62
2019-05-10T18:49:15.409Z,9.28
2019-05-10T18:51:43.305Z,9.50
2019-05-10T18:54:11.113Z,6.95
2019-05-10T18:56:39.030Z,8.40
2019-05-10T18:59:08.824Z,8.85
2019-05-10T19:01:38.639Z,6.37
2019-05-10T19:04:07.178Z,5.75
2019-05-10T19:06:35.253Z,9.05
2019-05-10T19:09:05.175Z,8.10
2019-05-10T19:11:33.391Z,7.55
2019-05-10T19:14:04.586Z,10.08
2019-05-10T19:16:32.159Z,8.93
2019-05-10T19:19:01.920Z,6.62
2019-05-10T19:21:30.664Z,5.78
2019-05-10T19:23:57.738Z,6.37
2019-05-10T19:26:29.554Z,6.42
2019-05-10T19:28:59.082Z,3.77
2019-05-10T19:31:23.143Z,6.15
2019-05-10T19:33:50.435Z,9.23
2019-05-10T19:36:17.587Z,8.68
2019-05-10T19:38:44.570Z,7.80
2019-05-10T19:41:11.596Z,8.28
2019-05-10T19:43:38.674Z,6.72
2019-05-10T19:46:05.895Z,8.28
2019-05-10T19:48:35.745Z,7.58
2019-05-10T19:51:02.805Z,6.10
2019-05-10T19:53:31.610Z,7.92
2019-05-10T19:56:00.093Z,9.23
2019-05-10T19:58:32.273Z,5.30
2019-05-10T20:00:57.751Z,8.65
2019-05-10T20:03:24.892Z,6.78
2019-05-10T20:05:51.892Z,7.30
2019-05-10T20:08:18.979Z,11.43
2019-05-10T20:10:46.496Z,7.90
2019-05-10T20:13:13.539Z,11.08
2019-05-10T20:15:40.652Z,7.60
2019-05-10T20:18:08.171Z,13.10
2019-05-10T20:20:35.926Z,9.13
2019-05-10T20:23:03.477Z,11.33
2019-05-10T20:25:30.527Z,8.15
2019-05-10T20:27:58.059Z,10.28
2019-05-10T20:30:25.110Z,8.33
2019-05-10T20:32:52.112Z,9.23
2019-05-10T20:35:19.223Z,9.73
2019-05-10T20:38:00.780Z,10.05
2019-05-10T20:40:16.798Z,11.33
2019-05-10T20:42:43.866Z,9.43
2019-05-10T20:45:11.167Z,16.73
2019-05-10T20:47:38.520Z,9.63
2019-05-10T20:50:06.137Z,8.40
2019-05-10T20:52:33.174Z,7.62
2019-05-10T20:55:00.202Z,7.78
2019-05-10T20:57:27.543Z,8.98
2019-05-10T20:59:54.545Z,10.48
2019-05-10T21:02:21.499Z,7.87
2019-05-10T21:04:48.494Z,7.70
2019-05-10T21:07:15.480Z,8.10
2019-05-10T21:09:42.492Z,14.45
2019-05-10T21:12:09.611Z,9.28
2019-05-10T21:14:36.584Z,20.08
2019-05-10T21:17:03.673Z,12.18
2019-05-10T21:19:30.839Z,11.35
2019-05-10T21:21:57.877Z,11.00
2019-05-10T21:24:24.944Z,9.20
2019-05-10T21:26:52.002Z,8.13
2019-05-10T21:29:19.082Z,7.75
2019-05-10T21:31:46.146Z,8.10
2019-05-10T21:34:13.362Z,14.28
2019-05-10T21:36:40.335Z,12.13
2019-05-10T21:39:08.347Z,8.00
2019-05-10T21:41:35.420Z,11.28
2019-05-10T21:44:02.479Z,7.15
2019-05-10T21:46:29.591Z,8.28
2019-05-10T21:48:56.572Z,7.62
2019-05-10T21:51:23.804Z,10.20
2019-05-10T21:53:51.053Z,7.97
2019-05-10T21:56:18.453Z,10.28
2019-05-10T21:58:45.404Z,9.13
2019-05-10T22:01:13.204Z,9.95
2019-05-10T22:03:40.478Z,10.90
2019-05-10T22:06:07.572Z,8.73
2019-05-10T22:08:48.432Z,9.20
2019-05-10T22:11:03.402Z,10.15
2019-05-10T22:13:30.691Z,13.60
2019-05-10T22:15:58.750Z,10.78
2019-05-10T22:18:25.963Z,9.83
2019-05-10T22:20:52.998Z,8.15
2019-05-10T22:23:20.367Z,10.20
2019-05-10T22:25:47.322Z,11.08
2019-05-10T22:28:14.305Z,12.98
2019-05-10T22:30:41.281Z,11.25
2019-05-10T22:33:08.243Z,12.93
2019-05-10T22:35:35.207Z,8.75
2019-05-10T22:38:02.259Z,13.45
2019-05-10T22:40:29.501Z,13.10
2019-05-10T22:42:56.712Z,11.22
2019-05-10T22:45:23.923Z,14.85
2019-05-10T22:47:51.055Z,8.68
2019-05-10T22:50:19.149Z,9.28
2019-05-10T22:52:46.253Z,10.80
2019-05-10T22:55:13.590Z,10.35
2019-05-10T22:57:41.216Z,11.40
2019-05-10T23:00:09.628Z,10.68
2019-05-10T23:02:38.384Z,12.40
2019-05-10T23:05:05.449Z,12.73
2019-05-10T23:07:32.578Z,10.38
2019-05-10T23:10:00.153Z,13.75
2019-05-10T23:12:27.140Z,10.55
2019-05-10T23:14:54.734Z,12.47
2019-05-10T23:17:21.780Z,9.40
2019-05-10T23:19:48.831Z,11.03
2019-05-10T23:22:15.945Z,13.18
2019-05-10T23:24:43.059Z,8.08
2019-05-10T23:27:10.167Z,12.65
2019-05-10T23:29:37.163Z,10.38
2019-05-10T23:32:04.318Z,9.38
2019-05-10T23:34:31.390Z,12.82
2019-05-10T23:36:58.518Z,14.47
2019-05-10T23:39:39.612Z,10.28
2019-05-10T23:41:54.402Z,13.38
2019-05-10T23:44:21.590Z,13.15
2019-05-10T23:46:48.689Z,8.65
2019-05-10T23:49:15.664Z,12.20
2019-05-10T23:51:42.715Z,13.32
2019-05-10T23:54:09.771Z,9.98
2019-05-10T23:56:37.167Z,9.58
2019-05-10T23:59:04.350Z,12.37
